Time;durP1;ratioP1;P1;durP2;ratioP2;P2;SDS_P1;SDS_P2;PMS_P1;PMS_P2;Temp;Humidity;BMP_temperature;BMP_pressure;BME280_temperature;BME280_humidity;BME280_pressure;Samples;Min_cycle;Max_cycle;Signal;HPM_P1;HPM_P2
2022/07/01 00:00:51;;;;;;;1.00;1.00;;;;;;;;;;4990488;28;20181;-81
2022/07/01 00:03:16;;;;;;;0.90;0.90;;;;;;;;;;4972118;28;20217;-81
2022/07/01 00:05:42;;;;;;;1.10;1.00;;;;;;;;;;4983152;28;20270;-80
2022/07/01 00:08:07;;;;;;;1.47;0.90;;;;;;;;;;4976973;28;20178;-80
2022/07/01 00:10:32;;;;;;;0.80;0.80;;;;;;;;;;4973179;28;20189;-80
2022/07/01 00:12:57;;;;;;;1.20;0.90;;;;;;;;;;4972666;28;20189;-80
2022/07/01 00:15:23;;;;;;;1.97;1.03;;;;;;;;;;4973833;28;20189;-80
2022/07/01 00:17:48;;;;;;;0.80;0.80;;;;;;;;;;4972735;28;20194;-81
2022/07/01 00:20:14;;;;;;;0.93;0.87;;;;;;;;;;4973569;28;20209;-81
2022/07/01 00:22:41;;;;;;;1.17;0.70;;;;;;;;;;4974122;28;20237;-81
2022/07/01 00:25:06;;;;;;;1.23;0.80;;;;;;;;;;4970404;28;20239;-85
2022/07/01 00:27:31;;;;;;;2.10;0.80;;;;;;;;;;4975257;28;20303;-83
2022/07/01 00:29:57;;;;;;;0.77;0.77;;;;;;;;;;4979446;28;20297;-82
2022/07/01 00:32:22;;;;;;;1.37;1.03;;;;;;;;;;4984555;28;20180;-82
2022/07/01 00:34:47;;;;;;;1.63;1.53;;;;;;;;;;4976015;28;20188;-83
2022/07/01 00:37:12;;;;;;;0.90;0.90;;;;;;;;;;4975570;28;20206;-81
2022/07/01 00:39:38;;;;;;;2.87;1.00;;;;;;;;;;4975425;28;20185;-82
2022/07/01 00:42:04;;;;;;;0.90;0.90;;;;;;;;;;4994608;28;20236;-81
2022/07/01 00:44:30;;;;;;;1.23;1.10;;;;;;;;;;4986576;28;20318;-81
2022/07/01 00:46:56;;;;;;;1.90;1.20;;;;;;;;;;4981970;28;20433;-81
2022/07/01 00:49:21;;;;;;;2.60;1.17;;;;;;;;;;4974511;28;20184;-81
2022/07/01 00:51:47;;;;;;;1.00;1.00;;;;;;;;;;4976022;28;20196;-81
2022/07/01 00:54:12;;;;;;;0.90;0.87;;;;;;;;;;4975979;28;21114;-81
2022/07/01 00:56:38;;;;;;;1.57;1.47;;;;;;;;;;4976284;28;20191;-80
2022/07/01 00:59:03;;;;;;;1.10;1.10;;;;;;;;;;4981318;28;20199;-80
2022/07/01 01:01:29;;;;;;;1.40;1.30;;;;;;;;;;4975976;28;20187;-80
2022/07/01 01:03:54;;;;;;;1.30;1.20;;;;;;;;;;4975400;28;20217;-80
2022/07/01 01:06:19;;;;;;;1.57;1.30;;;;;;;;;;4976363;28;20173;-81
2022/07/01 01:08:46;;;;;;;2.20;1.77;;;;;;;;;;4992847;28;20173;-80
2022/07/01 01:11:11;;;;;;;2.43;1.57;;;;;;;;;;4991798;28;20195;-80
2022/07/01 01:13:36;;;;;;;1.80;1.70;;;;;;;;;;4977120;28;20176;-80
2022/07/01 01:16:01;;;;;;;1.80;1.70;;;;;;;;;;4990899;28;20206;-80
2022/07/01 01:18:27;;;;;;;1.60;1.50;;;;;;;;;;4975109;28;20192;-80
2022/07/01 01:20:52;;;;;;;1.90;1.80;;;;;;;;;;4975200;28;20230;-80
2022/07/01 01:23:17;;;;;;;2.60;2.40;;;;;;;;;;4973098;28;20276;-80
2022/07/01 01:25:43;;;;;;;2.23;2.00;;;;;;;;;;4975079;28;20230;-80
2022/07/01 01:28:08;;;;;;;3.13;2.03;;;;;;;;;;4970431;28;20180;-80
2022/07/01 01:30:35;;;;;;;2.00;1.90;;;;;;;;;;4971922;28;20184;-80
2022/07/01 01:33:00;;;;;;;2.13;1.90;;;;;;;;;;4976239;28;20176;-79
2022/07/01 01:35:26;;;;;;;1.60;1.50;;;;;;;;;;4975917;28;20190;-80
2022/07/01 01:37:51;;;;;;;2.70;1.67;;;;;;;;;;4977062;28;20308;-81
2022/07/01 01:40:16;;;;;;;1.67;1.57;;;;;;;;;;4975004;28;20211;-81
2022/07/01 01:42:42;;;;;;;2.20;1.70;;;;;;;;;;4971111;28;20302;-82
2022/07/01 01:45:08;;;;;;;1.80;1.70;;;;;;;;;;4973212;28;20208;-83
2022/07/01 01:47:33;;;;;;;2.37;1.70;;;;;;;;;;4974351;28;20173;-82
2022/07/01 01:49:59;;;;;;;1.97;1.87;;;;;;;;;;4988389;28;20177;-82
2022/07/01 01:52:24;;;;;;;2.00;1.80;;;;;;;;;;4973184;28;20188;-82
2022/07/01 01:54:49;;;;;;;1.90;1.80;;;;;;;;;;4972353;28;20183;-83
2022/07/01 01:57:14;;;;;;;2.23;2.10;;;;;;;;;;4976438;28;20181;-83
2022/07/01 01:59:40;;;;;;;2.10;2.00;;;;;;;;;;4970615;28;20204;-83
2022/07/01 02:02:05;;;;;;;2.30;2.10;;;;;;;;;;4969618;28;20197;-83
2022/07/01 02:04:31;;;;;;;2.30;2.10;;;;;;;;;;4971225;28;20284;-83
2022/07/01 02:06:56;;;;;;;2.10;1.93;;;;;;;;;;4971914;28;20215;-82
2022/07/01 02:09:21;;;;;;;2.63;2.03;;;;;;;;;;4975142;28;20208;-82
2022/07/01 02:11:46;;;;;;;2.37;2.27;;;;;;;;;;4973287;28;20186;-83
2022/07/01 02:14:12;;;;;;;2.97;2.53;;;;;;;;;;4973330;28;20195;-82
2022/07/01 02:16:37;;;;;;;4.47;2.33;;;;;;;;;;4969051;28;20208;-82
2022/07/01 02:19:03;;;;;;;2.53;2.33;;;;;;;;;;4974099;28;20216;-82
2022/07/01 02:21:28;;;;;;;2.30;2.20;;;;;;;;;;4973936;28;20180;-82
2022/07/01 02:23:54;;;;;;;3.10;2.37;;;;;;;;;;4974373;28;20232;-81
2022/07/01 02:26:19;;;;;;;2.50;2.30;;;;;;;;;;4972435;28;20188;-81
2022/07/01 02:28:44;;;;;;;2.20;2.00;;;;;;;;;;4971158;28;20211;-81
2022/07/01 02:31:09;;;;;;;1.80;1.70;;;;;;;;;;4972041;28;20188;-82
2022/07/01 02:33:35;;;;;;;2.23;2.03;;;;;;;;;;4969554;28;20295;-81
2022/07/01 02:36:00;;;;;;;2.27;2.07;;;;;;;;;;4968206;28;20245;-81
2022/07/01 02:38:25;;;;;;;6.90;1.97;;;;;;;;;;4969243;28;20355;-81
2022/07/01 02:40:50;;;;;;;1.90;1.80;;;;;;;;;;4970552;28;20191;-80
2022/07/01 02:43:16;;;;;;;2.00;1.80;;;;;;;;;;4970571;28;20296;-81
2022/07/01 02:45:41;;;;;;;2.90;2.30;;;;;;;;;;4975850;28;20542;-81
2022/07/01 02:48:07;;;;;;;1.50;1.40;;;;;;;;;;4974254;28;20215;-81
2022/07/01 02:50:32;;;;;;;1.80;1.70;;;;;;;;;;4967078;28;20184;-80
2022/07/01 02:52:57;;;;;;;1.50;1.40;;;;;;;;;;4974088;28;20263;-81
2022/07/01 02:55:22;;;;;;;1.40;1.30;;;;;;;;;;4972076;28;20210;-81
2022/07/01 02:57:51;;;;;;;1.93;1.20;;;;;;;;;;4971889;28;20269;-80
2022/07/01 03:00:17;;;;;;;1.50;1.40;;;;;;;;;;4972641;28;20277;-80
2022/07/01 03:02:43;;;;;;;1.20;1.10;;;;;;;;;;4970671;28;20180;-80
2022/07/01 03:05:10;;;;;;;1.63;1.53;;;;;;;;;;4972594;28;20287;-80
2022/07/01 03:07:35;;;;;;;1.27;1.20;;;;;;;;;;4970701;28;20176;-80
2022/07/01 03:10:01;;;;;;;1.13;1.10;;;;;;;;;;4975066;28;20176;-80
2022/07/01 03:12:29;;;;;;;1.07;1.07;;;;;;;;;;4973459;28;20190;-80
2022/07/01 03:14:56;;;;;;;1.13;1.10;;;;;;;;;;4972296;28;20185;-80
2022/07/01 03:17:21;;;;;;;1.37;1.27;;;;;;;;;;4974430;28;20196;-80
2022/07/01 03:19:46;;;;;;;1.40;1.30;;;;;;;;;;4978132;28;20179;-80
2022/07/01 03:22:12;;;;;;;1.50;1.40;;;;;;;;;;4969968;28;20191;-80
2022/07/01 03:24:38;;;;;;;1.50;1.40;;;;;;;;;;4970268;28;20212;-80
2022/07/01 03:27:03;;;;;;;1.40;1.30;;;;;;;;;;4966429;28;20185;-80
2022/07/01 03:29:28;;;;;;;1.50;1.40;;;;;;;;;;4966855;28;20176;-80
2022/07/01 03:31:54;;;;;;;1.40;1.30;;;;;;;;;;4971038;28;20237;-80
2022/07/01 03:34:19;;;;;;;1.37;1.27;;;;;;;;;;4978953;28;20211;-81
2022/07/01 03:36:44;;;;;;;1.77;1.30;;;;;;;;;;4969559;28;20200;-80
2022/07/01 03:39:10;;;;;;;1.20;1.10;;;;;;;;;;4973170;28;20227;-80
2022/07/01 03:41:35;;;;;;;1.33;1.27;;;;;;;;;;4975174;28;20228;-80
2022/07/01 03:44:00;;;;;;;1.40;1.03;;;;;;;;;;4967313;28;20409;-80
2022/07/01 03:46:26;;;;;;;1.33;1.23;;;;;;;;;;4972510;28;20194;-80
2022/07/01 03:48:51;;;;;;;1.03;0.97;;;;;;;;;;4983996;28;20182;-80
2022/07/01 03:51:16;;;;;;;0.87;0.87;;;;;;;;;;4974802;28;20274;-80
2022/07/01 03:56:25;;;;;;;0.90;0.90;;;;;;;;;;4993964;28;20194;-80
2022/07/01 03:58:50;;;;;;;0.80;0.80;;;;;;;;;;4972345;28;20191;-80
2022/07/01 04:01:15;;;;;;;1.40;1.10;;;;;;;;;;4984733;28;20191;-80
2022/07/01 04:03:41;;;;;;;0.80;0.70;;;;;;;;;;4992914;28;20262;-80
2022/07/01 04:06:06;;;;;;;0.80;0.80;;;;;;;;;;4974628;28;20213;-80
2022/07/01 04:08:31;;;;;;;1.00;1.00;;;;;;;;;;4977115;28;20210;-80
2022/07/01 04:10:56;;;;;;;0.80;0.80;;;;;;;;;;4977820;28;20186;-80
2022/07/01 04:13:22;;;;;;;1.60;1.50;;;;;;;;;;5000715;28;20186;-80
2022/07/01 04:15:48;;;;;;;1.10;1.10;;;;;;;;;;4978419;28;20183;-80
2022/07/01 04:18:13;;;;;;;2.20;1.30;;;;;;;;;;4975540;28;20282;-80
2022/07/01 04:20:38;;;;;;;1.30;1.20;;;;;;;;;;4975372;28;20194;-80
2022/07/01 04:23:03;;;;;;;1.20;1.10;;;;;;;;;;4977393;28;20185;-80
2022/07/01 04:25:29;;;;;;;1.13;1.03;;;;;;;;;;4971734;28;20217;-81
2022/07/01 04:27:55;;;;;;;0.90;0.90;;;;;;;;;;4976902;28;20174;-81
2022/07/01 04:30:20;;;;;;;1.13;1.13;;;;;;;;;;4995486;28;20198;-80
2022/07/01 04:32:46;;;;;;;0.77;0.77;;;;;;;;;;4974842;28;20267;-81
2022/07/01 04:35:12;;;;;;;1.40;0.83;;;;;;;;;;4972050;28;20185;-81
2022/07/01 04:37:38;;;;;;;0.90;0.90;;;;;;;;;;4976200;28;20203;-81
2022/07/01 04:40:04;;;;;;;1.30;1.20;;;;;;;;;;4987087;28;20191;-81
2022/07/01 04:42:29;;;;;;;1.73;1.20;;;;;;;;;;4976233;28;20233;-81
2022/07/01 04:44:54;;;;;;;1.20;1.10;;;;;;;;;;4974216;28;20203;-81
2022/07/01 04:47:22;;;;;;;1.30;1.20;;;;;;;;;;4973558;28;20175;-81
2022/07/01 04:49:47;;;;;;;1.60;1.50;;;;;;;;;;4971219;28;20175;-81
2022/07/01 04:52:12;;;;;;;1.03;1.03;;;;;;;;;;4976054;28;20338;-81
2022/07/01 04:54:37;;;;;;;2.10;1.37;;;;;;;;;;4972441;28;20188;-82
2022/07/01 04:57:03;;;;;;;1.37;1.17;;;;;;;;;;4975442;28;20202;-82
2022/07/01 04:59:28;;;;;;;1.20;1.10;;;;;;;;;;4972121;28;20180;-80
2022/07/01 05:01:53;;;;;;;1.20;1.10;;;;;;;;;;4970694;28;20202;-81
2022/07/01 05:04:18;;;;;;;1.27;1.03;;;;;;;;;;4973144;28;20191;-81
2022/07/01 05:06:44;;;;;;;1.30;1.20;;;;;;;;;;4977171;28;20178;-82
2022/07/01 05:09:09;;;;;;;1.17;1.07;;;;;;;;;;4976811;28;20210;-82
2022/07/01 05:11:35;;;;;;;1.40;1.30;;;;;;;;;;4976080;28;20253;-83
2022/07/01 05:14:00;;;;;;;1.60;1.30;;;;;;;;;;4979326;28;20179;-83
2022/07/01 05:16:25;;;;;;;1.37;1.20;;;;;;;;;;4970407;28;20312;-83
2022/07/01 05:24:18;;;;;;;2.57;1.43;;;;;;;;;;4973099;28;20204;-83
2022/07/01 05:26:44;;;;;;;1.97;1.87;;;;;;;;;;4972413;28;20260;-83
2022/07/01 05:29:09;;;;;;;1.67;1.20;;;;;;;;;;4971531;28;20175;-83
2022/07/01 05:31:34;;;;;;;1.40;1.30;;;;;;;;;;4970617;28;20187;-83
2022/07/01 05:33:59;;;;;;;1.50;1.40;;;;;;;;;;4973557;28;20199;-84
2022/07/01 05:36:25;;;;;;;1.70;1.60;;;;;;;;;;4974049;28;20224;-83
2022/07/01 05:38:50;;;;;;;1.40;1.20;;;;;;;;;;4974075;28;20188;-83
2022/07/01 05:41:16;;;;;;;2.63;1.40;;;;;;;;;;4970175;28;20183;-83
2022/07/01 05:43:41;;;;;;;1.40;1.30;;;;;;;;;;4972339;28;20313;-83
2022/07/01 05:46:06;;;;;;;1.70;1.50;;;;;;;;;;4976433;28;20563;-83
2022/07/01 05:48:32;;;;;;;1.30;1.20;;;;;;;;;;4971423;28;20178;-83
2022/07/01 05:50:57;;;;;;;1.57;1.47;;;;;;;;;;4969739;28;20270;-83
2022/07/01 05:53:22;;;;;;;2.43;1.30;;;;;;;;;;4969625;28;20306;-82
2022/07/01 05:55:48;;;;;;;1.57;1.30;;;;;;;;;;4970414;28;20177;-83
2022/07/01 05:58:14;;;;;;;1.50;1.40;;;;;;;;;;4972180;28;20217;-83
2022/07/01 06:00:42;;;;;;;1.03;1.03;;;;;;;;;;4975654;28;20207;-82
2022/07/01 06:03:08;;;;;;;1.40;1.30;;;;;;;;;;4973358;28;20184;-82
2022/07/01 06:05:34;;;;;;;1.50;1.40;;;;;;;;;;4973212;28;20219;-82
2022/07/01 06:08:01;;;;;;;1.73;1.40;;;;;;;;;;4971694;28;20179;-82
2022/07/01 06:10:26;;;;;;;1.47;1.37;;;;;;;;;;4970944;28;20175;-82
2022/07/01 06:12:51;;;;;;;1.40;1.30;;;;;;;;;;4970814;28;20267;-82
2022/07/01 06:15:17;;;;;;;1.30;1.20;;;;;;;;;;4972509;28;20216;-81
2022/07/01 06:17:43;;;;;;;1.40;1.20;;;;;;;;;;4977529;28;20212;-82
2022/07/01 06:20:08;;;;;;;4.10;1.40;;;;;;;;;;4967906;28;20234;-82
2022/07/01 06:22:33;;;;;;;5.40;5.10;;;;;;;;;;4968853;28;20188;-83
2022/07/01 06:24:59;;;;;;;1.60;1.50;;;;;;;;;;4969261;28;20204;-82
2022/07/01 06:27:24;;;;;;;1.57;1.47;;;;;;;;;;4970900;28;20186;-82
2022/07/01 06:29:50;;;;;;;1.73;1.63;;;;;;;;;;4969466;28;20180;-83
2022/07/01 06:32:15;;;;;;;1.40;1.30;;;;;;;;;;4973019;28;20185;-83
2022/07/01 06:34:40;;;;;;;1.57;1.47;;;;;;;;;;4971175;28;20287;-82
2022/07/01 06:37:06;;;;;;;2.27;1.90;;;;;;;;;;4968361;28;20199;-83
2022/07/01 06:39:31;;;;;;;3.00;1.67;;;;;;;;;;4969232;28;20179;-83
2022/07/01 06:41:56;;;;;;;1.80;1.70;;;;;;;;;;4968614;28;20263;-84
2022/07/01 06:44:22;;;;;;;2.20;1.73;;;;;;;;;;4971361;28;20211;-83
2022/07/01 06:46:47;;;;;;;3.27;1.80;;;;;;;;;;4974792;28;20176;-83
2022/07/01 06:49:13;;;;;;;2.43;2.23;;;;;;;;;;4977321;28;20186;-83
2022/07/01 06:51:38;;;;;;;2.40;2.20;;;;;;;;;;4969665;28;20231;-82
2022/07/01 06:54:03;;;;;;;3.27;2.30;;;;;;;;;;4971956;28;20231;-82
2022/07/01 06:56:28;;;;;;;3.43;2.57;;;;;;;;;;4969790;28;20187;-82
2022/07/01 06:58:54;;;;;;;132.63;48.00;;;;;;;;;;4971264;28;20250;-82
2022/07/01 07:01:19;;;;;;;32.13;17.23;;;;;;;;;;4972707;28;20251;-81
2022/07/01 07:03:45;;;;;;;4.60;3.70;;;;;;;;;;4971026;28;20213;-81
2022/07/01 07:13:43;;;;;;;2.33;2.13;;;;;;;;;;4985992;28;20245;-82
2022/07/01 07:16:08;;;;;;;2.97;2.40;;;;;;;;;;4969215;28;20191;-82
2022/07/01 07:18:36;;;;;;;2.70;2.40;;;;;;;;;;4973317;28;20282;-82
2022/07/01 07:21:03;;;;;;;2.60;2.40;;;;;;;;;;4968296;28;20193;-82
2022/07/01 07:23:28;;;;;;;5.00;2.40;;;;;;;;;;4972087;28;20195;-82
2022/07/01 07:25:53;;;;;;;4.00;2.60;;;;;;;;;;4976286;28;20216;-82
2022/07/01 07:28:18;;;;;;;2.17;2.07;;;;;;;;;;4971549;28;20198;-81
2022/07/01 07:30:43;;;;;;;3.53;2.10;;;;;;;;;;4967297;28;20195;-81
2022/07/01 07:33:09;;;;;;;3.63;2.53;;;;;;;;;;4967576;28;20183;-81
2022/07/01 07:35:34;;;;;;;3.57;3.27;;;;;;;;;;4971969;28;20191;-81
2022/07/01 07:37:59;;;;;;;2.37;1.80;;;;;;;;;;4961102;28;20203;-81
2022/07/01 07:40:25;;;;;;;1.90;1.80;;;;;;;;;;4969271;28;21067;-81
2022/07/01 07:42:50;;;;;;;2.60;2.30;;;;;;;;;;4971469;28;20191;-81
2022/07/01 07:45:16;;;;;;;1.87;1.77;;;;;;;;;;4969051;28;20285;-81
2022/07/01 07:47:42;;;;;;;2.30;2.10;;;;;;;;;;4969004;28;20179;-81
2022/07/01 07:50:08;;;;;;;4.10;2.03;;;;;;;;;;4968894;28;20310;-82
2022/07/01 07:52:34;;;;;;;2.30;2.10;;;;;;;;;;4965341;28;20192;-82
2022/07/01 07:54:59;;;;;;;3.23;2.17;;;;;;;;;;4966249;28;20297;-83
2022/07/01 07:57:24;;;;;;;2.00;1.90;;;;;;;;;;4971807;28;20183;-83
2022/07/01 07:59:49;;;;;;;2.30;2.10;;;;;;;;;;4976385;28;20277;-83
2022/07/01 08:02:15;;;;;;;2.70;2.50;;;;;;;;;;4970279;28;20209;-83
2022/07/01 08:04:40;;;;;;;2.07;1.90;;;;;;;;;;4970415;28;20214;-83
2022/07/01 08:07:05;;;;;;;2.07;1.87;;;;;;;;;;4962727;28;20187;-83
2022/07/01 08:09:34;;;;;;;2.13;1.93;;;;;;;;;;4966783;28;20183;-85
2022/07/01 08:11:59;;;;;;;3.23;2.17;;;;;;;;;;4980434;28;20242;-84
2022/07/01 08:14:24;;;;;;;3.63;2.70;;;;;;;;;;4967843;28;20177;-85
2022/07/01 08:16:50;;;;;;;2.03;1.83;;;;;;;;;;4960331;28;20243;-85
2022/07/01 08:19:15;;;;;;;1.80;1.67;;;;;;;;;;4966437;28;20170;-86
2022/07/01 08:21:40;;;;;;;1.70;1.60;;;;;;;;;;4971249;28;20242;-85
2022/07/01 08:24:05;;;;;;;3.00;2.23;;;;;;;;;;4971198;28;20264;-85
2022/07/01 08:26:31;;;;;;;2.10;2.00;;;;;;;;;;4964042;28;20287;-86
2022/07/01 08:28:56;;;;;;;2.00;1.80;;;;;;;;;;4967507;28;20173;-85
2022/07/01 08:31:21;;;;;;;2.20;2.00;;;;;;;;;;4973953;28;20204;-89
2022/07/01 08:33:46;;;;;;;1.97;1.73;;;;;;;;;;4966641;28;20185;-87
2022/07/01 08:36:13;;;;;;;4.43;1.57;;;;;;;;;;4969422;28;20192;-89
2022/07/01 08:38:39;;;;;;;1.80;1.43;;;;;;;;;;4976383;28;20179;-88
2022/07/01 08:41:04;;;;;;;1.47;1.37;;;;;;;;;;4965601;28;20192;-90
2022/07/01 08:43:30;;;;;;;1.97;1.47;;;;;;;;;;4964608;28;20179;-89
2022/07/01 08:45:57;;;;;;;2.17;1.60;;;;;;;;;;4973243;28;20242;-89
2022/07/01 08:48:22;;;;;;;1.57;1.37;;;;;;;;;;4968751;28;20224;-87
2022/07/01 08:50:51;;;;;;;1.37;1.27;;;;;;;;;;4971957;28;20195;-87
2022/07/01 08:53:16;;;;;;;1.50;1.40;;;;;;;;;;4966194;28;20184;-86
2022/07/01 08:58:27;;;;;;;4.10;1.80;;;;;;;;;;4985618;28;20223;-86
2022/07/01 09:00:52;;;;;;;1.80;1.50;;;;;;;;;;4966814;28;20212;-86
2022/07/01 09:03:21;;;;;;;1.90;1.60;;;;;;;;;;4972493;28;20215;-86
2022/07/01 09:05:51;;;;;;;1.37;1.27;;;;;;;;;;4972485;28;20212;-85
2022/07/01 09:08:17;;;;;;;2.43;1.60;;;;;;;;;;4967494;28;20188;-84
2022/07/01 09:10:45;;;;;;;3.57;1.70;;;;;;;;;;4974165;28;20250;-85
2022/07/01 09:13:12;;;;;;;3.00;1.63;;;;;;;;;;4972488;28;20308;-85
2022/07/01 09:15:37;;;;;;;3.00;2.80;;;;;;;;;;4970631;28;20311;-85
2022/07/01 09:18:04;;;;;;;1.53;1.43;;;;;;;;;;4969065;28;20484;-84
2022/07/01 09:20:31;;;;;;;2.60;1.60;;;;;;;;;;4969613;28;20186;-84
2022/07/01 09:23:01;;;;;;;1.80;1.70;;;;;;;;;;4965236;28;20186;-84
2022/07/01 09:25:28;;;;;;;2.50;1.93;;;;;;;;;;4961864;28;20220;-84
2022/07/01 09:28:09;;;;;;;2.20;1.50;;;;;;;;;;4965973;28;20188;-84
2022/07/01 09:30:35;;;;;;;2.83;1.50;;;;;;;;;;4969740;28;20196;-83
2022/07/01 09:33:13;;;;;;;1.40;1.30;;;;;;;;;;4987831;28;20175;-84
2022/07/01 09:35:39;;;;;;;3.60;1.60;;;;;;;;;;4973711;28;20239;-84
2022/07/01 09:38:06;;;;;;;1.87;1.57;;;;;;;;;;4967314;28;20302;-84
2022/07/01 09:41:11;;;;;;;2.10;1.50;;;;;;;;;;4962534;28;20180;-84
2022/07/01 09:43:37;;;;;;;2.67;1.53;;;;;;;;;;4951504;28;20183;-84
2022/07/01 09:46:09;;;;;;;2.17;1.60;;;;;;;;;;4935934;29;20217;-84
2022/07/01 09:48:34;;;;;;;1.60;1.50;;;;;;;;;;4934277;29;20555;-84
2022/07/01 09:51:00;;;;;;;1.63;1.53;;;;;;;;;;4932836;28;20177;-84
2022/07/01 09:53:25;;;;;;;1.77;1.67;;;;;;;;;;4935750;28;20182;-84
2022/07/01 09:55:51;;;;;;;1.33;1.23;;;;;;;;;;4935989;29;20213;-84
2022/07/01 09:58:16;;;;;;;1.53;1.43;;;;;;;;;;4934943;28;20185;-84
2022/07/01 10:00:41;;;;;;;1.63;1.53;;;;;;;;;;4935291;29;20189;-84
2022/07/01 10:03:07;;;;;;;2.07;1.57;;;;;;;;;;4935282;29;20191;-85
2022/07/01 10:05:44;;;;;;;3.67;2.43;;;;;;;;;;4951011;28;20233;-84
2022/07/01 10:08:09;;;;;;;1.37;1.27;;;;;;;;;;4934333;28;20190;-84
2022/07/01 10:10:45;;;;;;;1.77;1.40;;;;;;;;;;4936648;29;20175;-84
2022/07/01 10:13:13;;;;;;;3.10;1.50;;;;;;;;;;4930088;28;20218;-85
2022/07/01 10:15:40;;;;;;;1.60;1.50;;;;;;;;;;4968381;28;20176;-83
2022/07/01 10:18:05;;;;;;;1.77;1.63;;;;;;;;;;4963362;28;20241;-84
2022/07/01 10:20:30;;;;;;;2.43;1.90;;;;;;;;;;4991263;28;20253;-85
2022/07/01 10:23:03;;;;;;;1.63;1.50;;;;;;;;;;4968595;28;20173;-84
2022/07/01 10:25:33;;;;;;;1.70;1.60;;;;;;;;;;4967096;28;20208;-85
2022/07/01 10:28:16;;;;;;;2.10;1.70;;;;;;;;;;4961424;28;20273;-84
2022/07/01 10:30:48;;;;;;;1.83;1.73;;;;;;;;;;4963518;28;20291;-84
2022/07/01 10:33:26;;;;;;;2.23;1.90;;;;;;;;;;4969479;28;20179;-85
2022/07/01 10:35:51;;;;;;;2.13;1.63;;;;;;;;;;4966763;28;20294;-85
2022/07/01 10:38:16;;;;;;;1.90;1.70;;;;;;;;;;4965761;28;20217;-84
2022/07/01 10:40:44;;;;;;;1.90;1.80;;;;;;;;;;4970952;28;20193;-85
2022/07/01 10:43:10;;;;;;;1.77;1.67;;;;;;;;;;4971135;28;20181;-85
2022/07/01 10:45:42;;;;;;;1.53;1.43;;;;;;;;;;4964558;28;20207;-85
2022/07/01 10:48:18;;;;;;;1.70;1.53;;;;;;;;;;4975684;28;20175;-85
2022/07/01 10:50:45;;;;;;;1.90;1.50;;;;;;;;;;4967448;28;20177;-85
2022/07/01 10:53:11;;;;;;;1.73;1.63;;;;;;;;;;4971371;28;20177;-85
2022/07/01 10:55:40;;;;;;;1.70;1.60;;;;;;;;;;4962856;28;20180;-85
2022/07/01 10:58:06;;;;;;;2.23;1.60;;;;;;;;;;4960741;28;20190;-85
2022/07/01 11:00:32;;;;;;;1.93;1.80;;;;;;;;;;4965148;28;20168;-85
2022/07/01 11:03:33;;;;;;;2.17;1.43;;;;;;;;;;4968529;28;20182;-85
2022/07/01 11:05:58;;;;;;;2.17;1.57;;;;;;;;;;4911988;29;20202;-85
2022/07/01 11:08:23;;;;;;;2.97;1.63;;;;;;;;;;4890792;29;20196;-85
2022/07/01 11:10:50;;;;;;;1.47;1.37;;;;;;;;;;4914174;29;20186;-85
2022/07/01 11:13:15;;;;;;;2.20;1.60;;;;;;;;;;4912118;29;20241;-85
2022/07/01 11:15:41;;;;;;;1.53;1.43;;;;;;;;;;4896504;29;20265;-85
2022/07/01 11:18:07;;;;;;;1.40;1.30;;;;;;;;;;4896268;29;20205;-85
2022/07/01 11:20:32;;;;;;;1.73;1.63;;;;;;;;;;4895332;29;20194;-86
2022/07/01 11:22:58;;;;;;;2.87;1.73;;;;;;;;;;4900287;29;20186;-85
2022/07/01 11:25:23;;;;;;;2.03;1.80;;;;;;;;;;4895103;29;20246;-85
2022/07/01 11:27:50;;;;;;;3.13;1.50;;;;;;;;;;4895311;29;20208;-86
2022/07/01 11:30:16;;;;;;;1.80;1.70;;;;;;;;;;4892052;29;20221;-85
2022/07/01 11:32:44;;;;;;;1.97;1.67;;;;;;;;;;4893981;29;20261;-86
2022/07/01 11:40:54;;;;;;;1.40;1.30;;;;;;;;;;4975767;28;20193;-86
2022/07/01 11:43:20;;;;;;;1.70;1.60;;;;;;;;;;4967588;28;20204;-87
2022/07/01 11:45:46;;;;;;;4.77;2.03;;;;;;;;;;4965964;28;20206;-87
2022/07/01 11:48:11;;;;;;;1.97;1.67;;;;;;;;;;4967431;28;20228;-87
2022/07/01 11:50:37;;;;;;;1.87;1.77;;;;;;;;;;4966988;28;20190;-86
2022/07/01 11:53:02;;;;;;;3.10;1.90;;;;;;;;;;4960070;28;20247;-87
2022/07/01 11:55:28;;;;;;;1.90;1.60;;;;;;;;;;4963744;28;20183;-87
2022/07/01 11:57:53;;;;;;;1.83;1.73;;;;;;;;;;4963768;28;20188;-87
2022/07/01 12:00:18;;;;;;;2.07;1.70;;;;;;;;;;4965692;28;20181;-87
2022/07/01 12:02:44;;;;;;;1.50;1.40;;;;;;;;;;4973307;28;20274;-87
2022/07/01 12:05:09;;;;;;;1.70;1.60;;;;;;;;;;4963930;28;20201;-87
2022/07/01 12:07:34;;;;;;;1.40;1.30;;;;;;;;;;4968277;28;20175;-88
2022/07/01 12:10:01;;;;;;;2.30;2.10;;;;;;;;;;4961682;28;20179;-87
2022/07/01 12:12:27;;;;;;;4.17;1.50;;;;;;;;;;4969888;28;20233;-87
2022/07/01 12:14:56;;;;;;;1.60;1.40;;;;;;;;;;4958855;28;20185;-87
2022/07/01 12:17:22;;;;;;;3.00;1.40;;;;;;;;;;4970541;28;20191;-88
2022/07/01 12:19:48;;;;;;;1.73;1.33;;;;;;;;;;4968523;28;20178;-88
2022/07/01 12:22:18;;;;;;;1.40;1.27;;;;;;;;;;4965641;28;20208;-88
2022/07/01 12:24:44;;;;;;;1.80;1.20;;;;;;;;;;4965955;28;20214;-89
2022/07/01 12:27:10;;;;;;;2.00;1.40;;;;;;;;;;4983469;28;20199;-89
2022/07/01 12:29:50;;;;;;;2.17;1.97;;;;;;;;;;4972635;28;20179;-88
2022/07/01 12:32:23;;;;;;;1.50;1.40;;;;;;;;;;4969322;28;20191;-89
2022/07/01 12:34:48;;;;;;;1.23;1.23;;;;;;;;;;4964519;28;20194;-88
2022/07/01 12:37:15;;;;;;;2.17;1.60;;;;;;;;;;4959410;28;20491;-88
2022/07/01 12:39:49;;;;;;;1.33;0.97;;;;;;;;;;4970043;28;20188;-88
2022/07/01 12:42:25;;;;;;;1.50;1.40;;;;;;;;;;4980380;28;20184;-90
2022/07/01 12:44:51;;;;;;;1.40;1.20;;;;;;;;;;4969323;28;20199;-88
2022/07/01 12:47:27;;;;;;;1.17;1.10;;;;;;;;;;4983311;28;20209;-88
2022/07/01 12:50:12;;;;;;;1.13;1.03;;;;;;;;;;4969203;28;20173;-88
2022/07/01 12:52:39;;;;;;;1.30;1.20;;;;;;;;;;4967170;28;20271;-88
2022/07/01 12:55:17;;;;;;;1.20;1.07;;;;;;;;;;4967956;28;20179;-88
2022/07/01 12:57:43;;;;;;;1.33;1.23;;;;;;;;;;4971735;28;20185;-89
2022/07/01 13:00:08;;;;;;;2.13;1.40;;;;;;;;;;4967678;28;20197;-88
2022/07/01 13:02:34;;;;;;;2.33;1.50;;;;;;;;;;4963904;28;20186;-89
2022/07/01 13:04:59;;;;;;;1.23;1.17;;;;;;;;;;4968630;28;20236;-88
2022/07/01 13:07:24;;;;;;;2.00;1.10;;;;;;;;;;4966635;28;20172;-87
2022/07/01 13:09:49;;;;;;;1.47;1.37;;;;;;;;;;4964878;28;20194;-88
2022/07/01 13:12:14;;;;;;;1.57;1.33;;;;;;;;;;4968641;28;20258;-90
2022/07/01 13:14:40;;;;;;;1.50;1.40;;;;;;;;;;4968193;28;20190;-88
2022/07/01 13:17:05;;;;;;;1.30;1.20;;;;;;;;;;4965951;28;20189;-88
2022/07/01 13:19:32;;;;;;;1.10;1.10;;;;;;;;;;4979171;28;20364;-87
2022/07/01 13:21:57;;;;;;;1.20;1.10;;;;;;;;;;4962361;28;20211;-87
2022/07/01 13:24:24;;;;;;;1.03;1.00;;;;;;;;;;4970212;28;20208;-89
2022/07/01 13:26:49;;;;;;;2.90;1.20;;;;;;;;;;4962340;28;20180;-87
2022/07/01 13:29:14;;;;;;;1.00;1.00;;;;;;;;;;4966816;28;20228;-88
2022/07/01 13:31:39;;;;;;;1.70;1.40;;;;;;;;;;4962109;28;20176;-88
2022/07/01 13:34:05;;;;;;;1.20;1.10;;;;;;;;;;4959726;28;20470;-88
2022/07/01 13:36:30;;;;;;;1.37;1.10;;;;;;;;;;4961118;28;20279;-88
2022/07/01 13:38:55;;;;;;;1.63;1.33;;;;;;;;;;4962154;28;20217;-87
2022/07/01 13:41:21;;;;;;;1.40;0.90;;;;;;;;;;4959062;28;20251;-86
2022/07/01 13:43:46;;;;;;;1.50;1.40;;;;;;;;;;4983217;28;20181;-88
2022/07/01 13:46:11;;;;;;;1.77;0.97;;;;;;;;;;4964412;28;20223;-86
2022/07/01 13:48:37;;;;;;;1.23;1.10;;;;;;;;;;4965967;28;20185;-89
2022/07/01 13:51:02;;;;;;;2.90;1.40;;;;;;;;;;4964789;28;20173;-87
2022/07/01 13:53:27;;;;;;;1.13;1.07;;;;;;;;;;4967506;28;20187;-89
2022/07/01 13:55:52;;;;;;;0.90;0.90;;;;;;;;;;4970637;28;20181;-89
2022/07/01 13:58:18;;;;;;;1.63;0.87;;;;;;;;;;4961451;28;20272;-87
2022/07/01 14:00:43;;;;;;;0.93;0.87;;;;;;;;;;4959093;28;20186;-88
2022/07/01 14:03:10;;;;;;;0.93;0.93;;;;;;;;;;4955670;28;20284;-88
2022/07/01 14:05:36;;;;;;;2.03;1.10;;;;;;;;;;4967558;28;20278;-89
2022/07/01 14:08:01;;;;;;;1.00;1.00;;;;;;;;;;4967415;28;20270;-89
2022/07/01 14:10:27;;;;;;;1.10;1.00;;;;;;;;;;4967535;28;20200;-88
2022/07/01 14:12:52;;;;;;;1.03;0.90;;;;;;;;;;4963020;28;20244;-87
2022/07/01 14:15:17;;;;;;;1.40;0.90;;;;;;;;;;4963211;28;20278;-88
2022/07/01 14:17:44;;;;;;;1.00;0.90;;;;;;;;;;4965791;28;20182;-88
2022/07/01 14:20:09;;;;;;;1.10;1.00;;;;;;;;;;4964822;28;20183;-89
2022/07/01 14:22:35;;;;;;;0.93;0.93;;;;;;;;;;4966293;28;20253;-88
2022/07/01 14:25:00;;;;;;;0.87;0.87;;;;;;;;;;4960747;28;20215;-88
2022/07/01 14:27:25;;;;;;;1.10;0.93;;;;;;;;;;4964362;28;20187;-89
2022/07/01 14:29:50;;;;;;;2.17;0.90;;;;;;;;;;4958103;28;20271;-88
2022/07/01 14:32:16;;;;;;;2.10;1.60;;;;;;;;;;4973577;28;20268;-88
2022/07/01 14:34:41;;;;;;;1.87;1.73;;;;;;;;;;4967345;28;20180;-89
2022/07/01 14:37:06;;;;;;;1.90;1.70;;;;;;;;;;4966692;28;20203;-88
2022/07/01 14:39:31;;;;;;;1.47;1.37;;;;;;;;;;4968483;28;20175;-89
2022/07/01 14:41:57;;;;;;;1.40;1.30;;;;;;;;;;4967533;28;20212;-88
2022/07/01 14:44:22;;;;;;;1.40;1.30;;;;;;;;;;4963704;28;20198;-88
2022/07/01 14:46:47;;;;;;;1.83;1.60;;;;;;;;;;4959488;28;20264;-89
2022/07/01 14:49:15;;;;;;;1.60;1.50;;;;;;;;;;4958574;28;20276;-88
2022/07/01 14:51:40;;;;;;;1.33;1.23;;;;;;;;;;4964605;28;20179;-89
2022/07/01 14:54:06;;;;;;;1.73;1.33;;;;;;;;;;4969444;28;20190;-89
2022/07/01 14:56:31;;;;;;;1.40;1.30;;;;;;;;;;4978716;28;20180;-89
2022/07/01 14:58:56;;;;;;;1.10;1.00;;;;;;;;;;4960651;28;20210;-90
2022/07/01 15:01:21;;;;;;;1.00;1.00;;;;;;;;;;4970521;28;20245;-88